WetterOnline ( https://www.wetteronline.de )

Wetter aktuell Ceska Kamenice

Aktuelles Wetter: Zinnwald (882m)

6-stündlich | Neueste Meldungen
Ortszeit Temperatur Wetter
Mo, 06.07. 2:00 16.9° C bedeckt
So, 05.07. 20:00 19.2° C fast wolkenlos
So, 05.07. 14:00 20.5° C bewölkt
So, 05.07. 8:00 16.2° C bedeckt
So, 05.07. 2:00 16.1° C wolkig
Sa, 04.07. 20:00 18.7° C wolkig
Sa, 04.07. 14:00 20.3° C leicht bewölkt
Sa, 04.07. 8:00 15.1° C leicht bewölkt
Ortszeit Temperatur Wetter
Mo, 06.07. 5:30 15.7° C bedeckt
Mo, 06.07. 5:20 15.7° C bedeckt
Mo, 06.07. 5:10 15.6° C bedeckt
Mo, 06.07. 5:00 15.7° C bedeckt
Mo, 06.07. 4:50 15.7° C bedeckt
Mo, 06.07. 4:40 15.8° C bewölkt
Mo, 06.07. 4:30 15.6° C leicht bewölkt
Mo, 06.07. 4:00 16.0° C leicht bewölkt
Ortszeit Relative Feuchte Sichtweite
Mo, 06.07. 2:00 76% >70 km
So, 05.07. 20:00 69% >70 km
So, 05.07. 14:00 64% >70 km
So, 05.07. 8:00 76% >70 km
So, 05.07. 2:00 62% >70 km
Sa, 04.07. 20:00 50% 65 km
Sa, 04.07. 14:00 46% >70 km
Sa, 04.07. 8:00 64% 65 km
Ortszeit Relative Feuchte Sichtweite
Mo, 06.07. 5:30 80% >70 km
Mo, 06.07. 5:20 80% -
Mo, 06.07. 5:10 82% -
Mo, 06.07. 5:00 81% >70 km
Mo, 06.07. 4:50 81% -
Mo, 06.07. 4:40 80% -
Mo, 06.07. 4:30 79% >70 km
Mo, 06.07. 4:00 78% >70 km
Ortszeit Niederschlagsmenge Niederschlagsart
Mo, 06.07. 2:00 0.0 l/m2 in 6 Std. -
So, 05.07. 20:00 0.0 l/m2 in 12 Std. -
So, 05.07. 14:00 0.0 l/m2 in 6 Std. -
So, 05.07. 8:00 0.0 l/m2 in 12 Std. -
So, 05.07. 2:00 0.0 l/m2 in 6 Std. -
Sa, 04.07. 20:00 0.0 l/m2 in 12 Std. -
Sa, 04.07. 14:00 0.0 l/m2 in 6 Std. -
Sa, 04.07. 8:00 0.0 l/m2 in 12 Std. -
Ortszeit Niederschlagsmenge Niederschlagsart
Mo, 06.07. 5:30 0.0 l/m2 in 1 Std. -
Mo, 06.07. 5:20 keine Meldung -
Mo, 06.07. 5:10 keine Meldung -
Mo, 06.07. 5:00 0.0 l/m2 in 1 Std. -
Mo, 06.07. 4:50 keine Meldung -
Mo, 06.07. 4:40 keine Meldung -
Mo, 06.07. 4:30 0.0 l/m2 in 1 Std. -
Mo, 06.07. 4:00 0.0 l/m2 in 1 Std. -
Ortszeit Stärke Spitze Richtung
km/h Bft. km/h Grad Sektor
Mo, 06.07. 2:00 19 3 35 230° SW
So, 05.07. 20:00 20 4 44 250° W
So, 05.07. 14:00 22 4 50 250° W
So, 05.07. 8:00 25 4 40 240° SW
So, 05.07. 2:00 18 3 43 250° W
Sa, 04.07. 20:00 13 3 41 270° W
Sa, 04.07. 14:00 22 4 43 220° SW
Sa, 04.07. 8:00 18 3 25 240° SW
Ortszeit Stärke Spitze Richtung
km/h Bft. km/h Grad Sektor
Mo, 06.07. 5:30 17 3 31 240° SW
Mo, 06.07. 5:20 17 3 - 240° SW
Mo, 06.07. 5:10 11 2 - 220° SW
Mo, 06.07. 5:00 11 2 29 230° SW
Mo, 06.07. 4:50 11 2 - 230° SW
Mo, 06.07. 4:40 14 3 - 240° SW
Mo, 06.07. 4:30 15 3 28 240° SW
Mo, 06.07. 4:00 18 3 36 230° SW
Ortszeit Untergrenze Bedeckung Gattung
total tief tief mittel hoch
Mo, 06.07. 2:00 1470 m 8/8 8/8 - - -
So, 05.07. 20:00 810 m 1/8 1/8 - - -
So, 05.07. 14:00 990 m 7/8 7/8 - - -
So, 05.07. 8:00 1320 m 8/8 8/8 - - -
So, 05.07. 2:00 1020 m 6/8 4/8 - - -
Sa, 04.07. 20:00 4200 m 8/8 3/8 - - -
Sa, 04.07. 14:00 1470 m 2/8 1/8 - - -
Sa, 04.07. 8:00 9000 m 6/8 0/8 - - -
Ortszeit Bedeckungsgrad in Achtel und Wolkenuntergrenze
Mo, 06.07. 5:30 6(690m) 8(1500m) 8(1800m)
Mo, 06.07. 5:20 6(690m) 8(1500m) 8(1800m)
Mo, 06.07. 5:10 4(630m) 7(780m) 8(1500m)
Mo, 06.07. 5:00 6(690m) 7(900m) 8(1500m)
Mo, 06.07. 4:50 6(690m) 7(900m) 8(1500m)
Mo, 06.07. 4:40 5(660m) 6(780m) 7(1500m)
Mo, 06.07. 4:30 3(720m) 3(1800m)
Mo, 06.07. 4:00 2(1200m)
Ortszeit Stationsdruck (hPa) Tendenz (hPa in 3 Std.)
Mo, 06.07. 2:00 913 - 1,0
So, 05.07. 20:00 914 - 0,7
So, 05.07. 14:00 915 - 0,5
So, 05.07. 8:00 915 - 0,3
So, 05.07. 2:00 917 - 0,3
Sa, 04.07. 20:00 917 - 0,1
Sa, 04.07. 14:00 918 - 0,7
Sa, 04.07. 8:00 919 0,0
Ortszeit Stationsdruck (hPa) Tendenz (hPa in 3 Std.)
Mo, 06.07. 5:30 912 - 0,7
Mo, 06.07. 5:20 912 keine Meldung
Mo, 06.07. 5:10 912 keine Meldung
Mo, 06.07. 5:00 912 - 0,8
Mo, 06.07. 4:50 912 keine Meldung
Mo, 06.07. 4:40 912 keine Meldung
Mo, 06.07. 4:30 912 - 0,8
Mo, 06.07. 4:00 912 - 1,1
Ortszeit Schneehöhe (cm)
Mo, 06.07. 2:00 -
So, 05.07. 20:00 -
So, 05.07. 14:00 -
So, 05.07. 8:00 -
So, 05.07. 2:00 -
Sa, 04.07. 20:00 -
Sa, 04.07. 14:00 -
Sa, 04.07. 8:00 -
Ortszeit Schneehöhe (cm)
Mo, 06.07. 5:30 -
Mo, 06.07. 5:20 -
Mo, 06.07. 5:10 -
Mo, 06.07. 5:00 -
Mo, 06.07. 4:50 -
Mo, 06.07. 4:40 -
Mo, 06.07. 4:30 -
Mo, 06.07. 4:00 -
Link zu dieser Seite / Seite empfehlen

Das Wetter in ...